sensor_id;sensor_type;location;lat;lon;timestamp;temperature;humidity
2873;DHT22;1444;49.166;7.312;2023-03-19T00:06:22;11.90;96.00
2873;DHT22;1444;49.166;7.312;2023-03-19T00:08:50;11.80;96.10
2873;DHT22;1444;49.166;7.312;2023-03-19T00:11:17;11.90;96.10
2873;DHT22;1444;49.166;7.312;2023-03-19T00:13:44;11.80;96.40
2873;DHT22;1444;49.166;7.312;2023-03-19T00:16:11;11.80;96.50
2873;DHT22;1444;49.166;7.312;2023-03-19T00:21:05;11.90;96.10
2873;DHT22;1444;49.166;7.312;2023-03-19T00:23:33;11.80;96.20
2873;DHT22;1444;49.166;7.312;2023-03-19T00:26:00;11.80;96.10
2873;DHT22;1444;49.166;7.312;2023-03-19T00:28:28;11.80;96.10
2873;DHT22;1444;49.166;7.312;2023-03-19T00:30:55;11.70;96.10
2873;DHT22;1444;49.166;7.312;2023-03-19T00:33:22;11.70;96.20
2873;DHT22;1444;49.166;7.312;2023-03-19T00:35:50;11.70;95.90
2873;DHT22;1444;49.166;7.312;2023-03-19T00:38:17;11.20;95.60
2873;DHT22;1444;49.166;7.312;2023-03-19T00:40:45;11.60;95.60
2873;DHT22;1444;49.166;7.312;2023-03-19T00:43:12;11.50;95.70
2873;DHT22;1444;49.166;7.312;2023-03-19T00:45:39;11.50;95.70
2873;DHT22;1444;49.166;7.312;2023-03-19T00:48:06;11.50;95.70
2873;DHT22;1444;49.166;7.312;2023-03-19T00:50:32;11.50;95.80
2873;DHT22;1444;49.166;7.312;2023-03-19T00:52:59;11.50;95.90
2873;DHT22;1444;49.166;7.312;2023-03-19T00:55:26;11.40;95.80
2873;DHT22;1444;49.166;7.312;2023-03-19T00:57:54;14.30;96.90
2873;DHT22;1444;49.166;7.312;2023-03-19T01:00:20;11.30;95.60
2873;DHT22;1444;49.166;7.312;2023-03-19T01:02:48;11.30;95.70
2873;DHT22;1444;49.166;7.312;2023-03-19T01:05:15;11.20;95.70
2873;DHT22;1444;49.166;7.312;2023-03-19T01:07:41;11.10;95.80
2873;DHT22;1444;49.166;7.312;2023-03-19T01:10:09;11.10;95.80
2873;DHT22;1444;49.166;7.312;2023-03-19T01:12:36;11.10;95.90
2873;DHT22;1444;49.166;7.312;2023-03-19T01:15:05;11.10;95.90
2873;DHT22;1444;49.166;7.312;2023-03-19T01:17:33;13.40;97.20
2873;DHT22;1444;49.166;7.312;2023-03-19T01:20:00;10.90;95.80
2873;DHT22;1444;49.166;7.312;2023-03-19T01:22:26;10.90;95.60
2873;DHT22;1444;49.166;7.312;2023-03-19T01:24:53;10.90;95.70
2873;DHT22;1444;49.166;7.312;2023-03-19T01:27:20;10.80;95.50
2873;DHT22;1444;49.166;7.312;2023-03-19T01:29:47;10.80;95.80
2873;DHT22;1444;49.166;7.312;2023-03-19T01:32:15;10.80;96.00
2873;DHT22;1444;49.166;7.312;2023-03-19T01:34:41;10.60;96.00
2873;DHT22;1444;49.166;7.312;2023-03-19T01:37:08;10.70;96.10
2873;DHT22;1444;49.166;7.312;2023-03-19T01:39:35;10.60;95.80
2873;DHT22;1444;49.166;7.312;2023-03-19T01:42:03;10.50;96.30
2873;DHT22;1444;49.166;7.312;2023-03-19T01:44:31;10.40;96.90
2873;DHT22;1444;49.166;7.312;2023-03-19T01:47:02;10.50;96.40
2873;DHT22;1444;49.166;7.312;2023-03-19T01:49:32;10.50;96.00
2873;DHT22;1444;49.166;7.312;2023-03-19T01:52:02;10.50;95.90
2873;DHT22;1444;49.166;7.312;2023-03-19T01:54:30;10.50;95.90
2873;DHT22;1444;49.166;7.312;2023-03-19T01:57:01;10.50;95.90
2873;DHT22;1444;49.166;7.312;2023-03-19T01:59:31;10.40;96.00
2873;DHT22;1444;49.166;7.312;2023-03-19T02:02:02;10.40;96.30
2873;DHT22;1444;49.166;7.312;2023-03-19T02:04:33;10.40;96.70
2873;DHT22;1444;49.166;7.312;2023-03-19T02:07:01;10.30;96.80
2873;DHT22;1444;49.166;7.312;2023-03-19T02:09:28;10.30;96.60
2873;DHT22;1444;49.166;7.312;2023-03-19T02:11:56;10.40;96.60
2873;DHT22;1444;49.166;7.312;2023-03-19T02:14:23;9.30;96.20
2873;DHT22;1444;49.166;7.312;2023-03-19T02:16:50;10.50;96.00
2873;DHT22;1444;49.166;7.312;2023-03-19T02:19:21;10.50;95.80
2873;DHT22;1444;49.166;7.312;2023-03-19T02:21:49;10.50;95.90
2873;DHT22;1444;49.166;7.312;2023-03-19T02:24:20;10.50;95.90
2873;DHT22;1444;49.166;7.312;2023-03-19T02:26:50;10.40;95.90
2873;DHT22;1444;49.166;7.312;2023-03-19T02:29:17;10.20;95.80
2873;DHT22;1444;49.166;7.312;2023-03-19T02:31:43;10.20;95.90
2873;DHT22;1444;49.166;7.312;2023-03-19T02:34:37;10.10;96.60
2873;DHT22;1444;49.166;7.312;2023-03-19T02:37:10;10.10;96.70
2873;DHT22;1444;49.166;7.312;2023-03-19T02:39:43;10.10;96.70
2873;DHT22;1444;49.166;7.312;2023-03-19T02:42:17;10.20;96.70
2873;DHT22;1444;49.166;7.312;2023-03-19T02:44:45;10.20;96.60
2873;DHT22;1444;49.166;7.312;2023-03-19T02:47:12;10.30;96.60
2873;DHT22;1444;49.166;7.312;2023-03-19T02:49:39;10.20;96.80
2873;DHT22;1444;49.166;7.312;2023-03-19T02:52:06;10.20;96.90
2873;DHT22;1444;49.166;7.312;2023-03-19T02:54:33;10.30;96.90
2873;DHT22;1444;49.166;7.312;2023-03-19T02:56:59;10.30;96.70
2873;DHT22;1444;49.166;7.312;2023-03-19T02:59:27;10.50;96.50
2873;DHT22;1444;49.166;7.312;2023-03-19T03:01:54;10.50;96.40
2873;DHT22;1444;49.166;7.312;2023-03-19T03:04:21;10.50;96.50
2873;DHT22;1444;49.166;7.312;2023-03-19T03:06:47;10.50;96.60
2873;DHT22;1444;49.166;7.312;2023-03-19T03:09:14;10.50;96.80
2873;DHT22;1444;49.166;7.312;2023-03-19T03:11:41;10.40;96.50
2873;DHT22;1444;49.166;7.312;2023-03-19T03:14:08;12.30;97.50
2873;DHT22;1444;49.166;7.312;2023-03-19T03:16:36;10.40;96.80
2873;DHT22;1444;49.166;7.312;2023-03-19T03:19:04;10.40;96.70
2873;DHT22;1444;49.166;7.312;2023-03-19T03:21:30;10.50;96.60
2873;DHT22;1444;49.166;7.312;2023-03-19T03:23:58;10.60;96.50
2873;DHT22;1444;49.166;7.312;2023-03-19T03:26:24;10.60;96.30
2873;DHT22;1444;49.166;7.312;2023-03-19T03:28:51;10.60;96.40
2873;DHT22;1444;49.166;7.312;2023-03-19T03:31:18;10.60;96.40
2873;DHT22;1444;49.166;7.312;2023-03-19T03:33:46;10.50;96.50
2873;DHT22;1444;49.166;7.312;2023-03-19T03:36:13;10.50;96.40
2873;DHT22;1444;49.166;7.312;2023-03-19T03:38:40;10.50;96.40
2873;DHT22;1444;49.166;7.312;2023-03-19T03:41:07;10.50;96.40
2873;DHT22;1444;49.166;7.312;2023-03-19T03:43:33;10.50;96.40
2873;DHT22;1444;49.166;7.312;2023-03-19T03:46:00;10.40;96.40
2873;DHT22;1444;49.166;7.312;2023-03-19T03:48:26;10.50;96.50
2873;DHT22;1444;49.166;7.312;2023-03-19T03:50:55;10.60;96.70
2873;DHT22;1444;49.166;7.312;2023-03-19T03:53:21;10.70;96.50
2873;DHT22;1444;49.166;7.312;2023-03-19T03:55:48;10.80;96.30
2873;DHT22;1444;49.166;7.312;2023-03-19T03:58:15;10.80;96.30
2873;DHT22;1444;49.166;7.312;2023-03-19T04:00:42;10.80;96.30
2873;DHT22;1444;49.166;7.312;2023-03-19T04:03:09;10.80;96.10
2873;DHT22;1444;49.166;7.312;2023-03-19T04:05:35;10.80;96.70
2873;DHT22;1444;49.166;7.312;2023-03-19T04:08:05;10.60;96.60
2873;DHT22;1444;49.166;7.312;2023-03-19T04:10:32;10.70;96.50
2873;DHT22;1444;49.166;7.312;2023-03-19T04:13:00;10.70;96.70
2873;DHT22;1444;49.166;7.312;2023-03-19T04:15:27;10.70;96.50
2873;DHT22;1444;49.166;7.312;2023-03-19T04:17:53;10.70;96.50
2873;DHT22;1444;49.166;7.312;2023-03-19T04:20:20;10.80;96.40
2873;DHT22;1444;49.166;7.312;2023-03-19T04:22:48;10.80;96.30
2873;DHT22;1444;49.166;7.312;2023-03-19T04:25:16;10.80;96.30
2873;DHT22;1444;49.166;7.312;2023-03-19T04:27:43;10.80;96.30
2873;DHT22;1444;49.166;7.312;2023-03-19T04:30:10;10.70;96.20
2873;DHT22;1444;49.166;7.312;2023-03-19T04:32:37;10.70;96.10
2873;DHT22;1444;49.166;7.312;2023-03-19T04:35:05;10.70;96.40
2873;DHT22;1444;49.166;7.312;2023-03-19T04:37:32;10.70;96.50
2873;DHT22;1444;49.166;7.312;2023-03-19T04:39:59;10.70;96.90
2873;DHT22;1444;49.166;7.312;2023-03-19T04:42:27;10.60;96.80
2873;DHT22;1444;49.166;7.312;2023-03-19T04:44:54;10.50;96.80
2873;DHT22;1444;49.166;7.312;2023-03-19T04:47:20;10.50;96.60
2873;DHT22;1444;49.166;7.312;2023-03-19T04:49:47;10.60;96.60
2873;DHT22;1444;49.166;7.312;2023-03-19T04:52:14;10.60;96.60
2873;DHT22;1444;49.166;7.312;2023-03-19T04:54:40;10.50;96.60
2873;DHT22;1444;49.166;7.312;2023-03-19T04:57:07;10.50;96.50
2873;DHT22;1444;49.166;7.312;2023-03-19T04:59:35;10.10;96.40
2873;DHT22;1444;49.166;7.312;2023-03-19T05:02:02;10.50;96.60
2873;DHT22;1444;49.166;7.312;2023-03-19T05:04:28;10.60;96.80
2873;DHT22;1444;49.166;7.312;2023-03-19T05:06:55;10.50;96.90
2873;DHT22;1444;49.166;7.312;2023-03-19T05:09:22;10.40;97.20
2873;DHT22;1444;49.166;7.312;2023-03-19T05:11:49;10.50;97.30
2873;DHT22;1444;49.166;7.312;2023-03-19T05:14:16;10.50;97.30
2873;DHT22;1444;49.166;7.312;2023-03-19T05:16:44;10.50;97.20
2873;DHT22;1444;49.166;7.312;2023-03-19T05:19:10;10.40;97.10
2873;DHT22;1444;49.166;7.312;2023-03-19T05:21:37;10.40;96.60
2873;DHT22;1444;49.166;7.312;2023-03-19T05:24:05;10.50;96.60
2873;DHT22;1444;49.166;7.312;2023-03-19T05:26:32;10.50;96.60
2873;DHT22;1444;49.166;7.312;2023-03-19T05:28:58;10.60;96.60
2873;DHT22;1444;49.166;7.312;2023-03-19T05:31:25;10.60;96.50
2873;DHT22;1444;49.166;7.312;2023-03-19T05:33:53;10.70;96.50
2873;DHT22;1444;49.166;7.312;2023-03-19T05:36:20;10.70;96.60
2873;DHT22;1444;49.166;7.312;2023-03-19T05:38:47;10.70;96.60
2873;DHT22;1444;49.166;7.312;2023-03-19T05:41:13;10.60;96.60
2873;DHT22;1444;49.166;7.312;2023-03-19T05:43:40;10.60;96.60
2873;DHT22;1444;49.166;7.312;2023-03-19T05:46:07;10.50;96.60
2873;DHT22;1444;49.166;7.312;2023-03-19T05:48:34;10.50;96.70
2873;DHT22;1444;49.166;7.312;2023-03-19T05:51:02;10.50;96.90
2873;DHT22;1444;49.166;7.312;2023-03-19T05:53:29;10.60;96.90
2873;DHT22;1444;49.166;7.312;2023-03-19T05:55:55;10.70;96.70
2873;DHT22;1444;49.166;7.312;2023-03-19T05:58:22;10.80;96.60
2873;DHT22;1444;49.166;7.312;2023-03-19T06:00:49;10.90;96.50
2873;DHT22;1444;49.166;7.312;2023-03-19T06:03:16;10.90;96.30
2873;DHT22;1444;49.166;7.312;2023-03-19T06:05:42;10.90;96.00
2873;DHT22;1444;49.166;7.312;2023-03-19T06:08:10;10.90;95.80
2873;DHT22;1444;49.166;7.312;2023-03-19T06:10:37;11.00;95.70
2873;DHT22;1444;49.166;7.312;2023-03-19T06:13:04;11.00;95.70
2873;DHT22;1444;49.166;7.312;2023-03-19T06:15:30;11.10;95.80
2873;DHT22;1444;49.166;7.312;2023-03-19T06:18:01;11.20;95.70
2873;DHT22;1444;49.166;7.312;2023-03-19T06:20:27;11.30;95.80
2873;DHT22;1444;49.166;7.312;2023-03-19T06:22:54;11.20;96.10
2873;DHT22;1444;49.166;7.312;2023-03-19T06:25:22;11.30;96.40
2873;DHT22;1444;49.166;7.312;2023-03-19T06:27:49;11.30;96.40
2873;DHT22;1444;49.166;7.312;2023-03-19T06:30:16;11.30;96.30
2873;DHT22;1444;49.166;7.312;2023-03-19T06:32:42;11.30;96.10
2873;DHT22;1444;49.166;7.312;2023-03-19T06:35:09;11.40;96.10
2873;DHT22;1444;49.166;7.312;2023-03-19T06:37:36;11.30;96.10
2873;DHT22;1444;49.166;7.312;2023-03-19T06:40:03;11.20;96.10
2873;DHT22;1444;49.166;7.312;2023-03-19T06:42:32;11.30;96.20
2873;DHT22;1444;49.166;7.312;2023-03-19T06:44:58;11.30;96.20
2873;DHT22;1444;49.166;7.312;2023-03-19T06:47:25;11.40;96.30
2873;DHT22;1444;49.166;7.312;2023-03-19T06:49:52;11.30;96.40
2873;DHT22;1444;49.166;7.312;2023-03-19T06:52:19;11.40;96.70
2873;DHT22;1444;49.166;7.312;2023-03-19T06:54:46;11.40;96.50
2873;DHT22;1444;49.166;7.312;2023-03-19T06:57:13;11.40;96.40
2873;DHT22;1444;49.166;7.312;2023-03-19T06:59:41;11.50;96.40
2873;DHT22;1444;49.166;7.312;2023-03-19T07:02:10;11.50;96.90
2873;DHT22;1444;49.166;7.312;2023-03-19T07:04:37;11.50;96.90
2873;DHT22;1444;49.166;7.312;2023-03-19T07:07:04;11.50;97.00
2873;DHT22;1444;49.166;7.312;2023-03-19T07:09:31;11.50;96.70
2873;DHT22;1444;49.166;7.312;2023-03-19T07:11:57;11.60;96.50
2873;DHT22;1444;49.166;7.312;2023-03-19T07:14:24;11.60;96.60
2873;DHT22;1444;49.166;7.312;2023-03-19T07:16:52;11.70;95.60
2873;DHT22;1444;49.166;7.312;2023-03-19T07:19:19;11.70;97.00
2873;DHT22;1444;49.166;7.312;2023-03-19T07:21:46;11.60;95.80
2873;DHT22;1444;49.166;7.312;2023-03-19T07:24:13;11.30;95.60
2873;DHT22;1444;49.166;7.312;2023-03-19T07:26:39;11.50;95.20
2873;DHT22;1444;49.166;7.312;2023-03-19T07:29:07;11.60;95.50
2873;DHT22;1444;49.166;7.312;2023-03-19T07:31:33;11.60;95.00
2873;DHT22;1444;49.166;7.312;2023-03-19T07:34:02;11.70;94.90
2873;DHT22;1444;49.166;7.312;2023-03-19T07:36:28;11.70;94.70
2873;DHT22;1444;49.166;7.312;2023-03-19T07:38:55;11.80;94.60
2873;DHT22;1444;49.166;7.312;2023-03-19T07:41:23;11.90;95.10
2873;DHT22;1444;49.166;7.312;2023-03-19T07:43:49;11.90;94.90
2873;DHT22;1444;49.166;7.312;2023-03-19T07:46:16;12.00;95.00
2873;DHT22;1444;49.166;7.312;2023-03-19T07:48:43;12.10;95.50
2873;DHT22;1444;49.166;7.312;2023-03-19T07:51:11;12.10;95.50
2873;DHT22;1444;49.166;7.312;2023-03-19T07:53:38;12.20;95.00
2873;DHT22;1444;49.166;7.312;2023-03-19T07:56:05;12.30;94.80
2873;DHT22;1444;49.166;7.312;2023-03-19T07:58:32;12.40;94.00
2873;DHT22;1444;49.166;7.312;2023-03-19T08:00:59;12.50;93.70
2873;DHT22;1444;49.166;7.312;2023-03-19T08:03:25;12.60;94.80
2873;DHT22;1444;49.166;7.312;2023-03-19T08:05:52;12.70;94.00
2873;DHT22;1444;49.166;7.312;2023-03-19T08:08:20;12.80;93.90
2873;DHT22;1444;49.166;7.312;2023-03-19T08:10:47;12.90;94.10
2873;DHT22;1444;49.166;7.312;2023-03-19T08:13:15;13.00;94.50
2873;DHT22;1444;49.166;7.312;2023-03-19T08:15:42;13.10;93.70
2873;DHT22;1444;49.166;7.312;2023-03-19T08:18:08;13.20;93.30
2873;DHT22;1444;49.166;7.312;2023-03-19T08:20:35;13.30;94.30
2873;DHT22;1444;49.166;7.312;2023-03-19T08:23:02;13.40;93.60
2873;DHT22;1444;49.166;7.312;2023-03-19T08:25:30;13.50;93.30
2873;DHT22;1444;49.166;7.312;2023-03-19T08:27:57;13.60;94.10
2873;DHT22;1444;49.166;7.312;2023-03-19T08:30:26;13.70;92.80
2873;DHT22;1444;49.166;7.312;2023-03-19T08:32:53;13.70;93.80
2873;DHT22;1444;49.166;7.312;2023-03-19T08:35:20;13.80;92.70
2873;DHT22;1444;49.166;7.312;2023-03-19T08:37:47;13.70;92.30
2873;DHT22;1444;49.166;7.312;2023-03-19T08:40:44;13.70;92.60
2873;DHT22;1444;49.166;7.312;2023-03-19T08:43:12;13.70;92.50
2873;DHT22;1444;49.166;7.312;2023-03-19T08:45:39;13.70;92.60
2873;DHT22;1444;49.166;7.312;2023-03-19T08:48:05;13.80;93.40
2873;DHT22;1444;49.166;7.312;2023-03-19T08:50:32;13.80;93.00
2873;DHT22;1444;49.166;7.312;2023-03-19T08:52:59;13.80;92.60
2873;DHT22;1444;49.166;7.312;2023-03-19T08:55:25;13.60;92.40
2873;DHT22;1444;49.166;7.312;2023-03-19T08:57:53;13.40;92.30
2873;DHT22;1444;49.166;7.312;2023-03-19T09:00:21;13.40;93.30
2873;DHT22;1444;49.166;7.312;2023-03-19T09:02:47;13.40;93.50
2873;DHT22;1444;49.166;7.312;2023-03-19T09:05:14;13.30;92.90
2873;DHT22;1444;49.166;7.312;2023-03-19T09:07:41;13.30;93.30
2873;DHT22;1444;49.166;7.312;2023-03-19T09:10:08;13.30;94.90
2873;DHT22;1444;49.166;7.312;2023-03-19T09:12:35;13.40;95.00
2873;DHT22;1444;49.166;7.312;2023-03-19T09:15:04;13.30;94.50
2873;DHT22;1444;49.166;7.312;2023-03-19T09:17:31;13.40;95.30
2873;DHT22;1444;49.166;7.312;2023-03-19T09:19:58;13.50;96.20
2873;DHT22;1444;49.166;7.312;2023-03-19T09:22:25;13.60;95.10
2873;DHT22;1444;49.166;7.312;2023-03-19T09:24:51;13.70;95.10
2873;DHT22;1444;49.166;7.312;2023-03-19T09:27:18;13.70;95.20
2873;DHT22;1444;49.166;7.312;2023-03-19T09:29:45;13.70;95.80
2873;DHT22;1444;49.166;7.312;2023-03-19T09:32:13;13.70;94.90
2873;DHT22;1444;49.166;7.312;2023-03-19T09:34:40;13.70;95.50
2873;DHT22;1444;49.166;7.312;2023-03-19T09:37:06;13.80;95.80
2873;DHT22;1444;49.166;7.312;2023-03-19T09:39:36;13.70;96.20
2873;DHT22;1444;49.166;7.312;2023-03-19T09:42:12;13.50;97.20
2873;DHT22;1444;49.166;7.312;2023-03-19T09:44:43;13.20;96.80
2873;DHT22;1444;49.166;7.312;2023-03-19T09:47:23;13.00;97.70
2873;DHT22;1444;49.166;7.312;2023-03-19T09:49:52;13.00;97.80
2873;DHT22;1444;49.166;7.312;2023-03-19T09:52:32;12.90;98.20
2873;DHT22;1444;49.166;7.312;2023-03-19T09:55:04;13.00;98.70
2873;DHT22;1444;49.166;7.312;2023-03-19T09:57:33;13.00;98.40
2873;DHT22;1444;49.166;7.312;2023-03-19T10:00:04;13.00;98.10
2873;DHT22;1444;49.166;7.312;2023-03-19T10:02:39;13.10;98.90
2873;DHT22;1444;49.166;7.312;2023-03-19T10:05:14;13.10;98.80
2873;DHT22;1444;49.166;7.312;2023-03-19T10:08:00;13.30;98.80
2873;DHT22;1444;49.166;7.312;2023-03-19T10:10:38;13.40;97.90
2873;DHT22;1444;49.166;7.312;2023-03-19T10:13:15;13.40;98.20
2873;DHT22;1444;49.166;7.312;2023-03-19T10:15:44;13.40;98.00
2873;DHT22;1444;49.166;7.312;2023-03-19T10:18:16;13.40;98.00
2873;DHT22;1444;49.166;7.312;2023-03-19T10:20:48;13.60;97.00
2873;DHT22;1444;49.166;7.312;2023-03-19T10:23:38;13.70;97.60
2873;DHT22;1444;49.166;7.312;2023-03-19T10:26:10;13.80;97.30
2873;DHT22;1444;49.166;7.312;2023-03-19T10:28:40;13.80;97.00
2873;DHT22;1444;49.166;7.312;2023-03-19T10:31:21;13.80;96.70
2873;DHT22;1444;49.166;7.312;2023-03-19T10:34:00;13.80;97.20
2873;DHT22;1444;49.166;7.312;2023-03-19T10:36:33;13.90;96.90
2873;DHT22;1444;49.166;7.312;2023-03-19T10:39:00;13.90;96.80
2873;DHT22;1444;49.166;7.312;2023-03-19T10:41:40;14.00;97.10
2873;DHT22;1444;49.166;7.312;2023-03-19T10:44:13;14.10;96.60
2873;DHT22;1444;49.166;7.312;2023-03-19T10:46:42;14.00;96.60
2873;DHT22;1444;49.166;7.312;2023-03-19T10:49:14;14.00;97.20
2873;DHT22;1444;49.166;7.312;2023-03-19T10:51:42;14.10;97.10
2873;DHT22;1444;49.166;7.312;2023-03-19T10:54:22;14.00;97.10
2873;DHT22;1444;49.166;7.312;2023-03-19T10:56:49;14.00;97.30
2873;DHT22;1444;49.166;7.312;2023-03-19T10:59:22;13.90;97.50
2873;DHT22;1444;49.166;7.312;2023-03-19T11:01:55;13.90;97.50
2873;DHT22;1444;49.166;7.312;2023-03-19T11:04:24;13.70;97.50
2873;DHT22;1444;49.166;7.312;2023-03-19T11:06:54;13.60;97.70
2873;DHT22;1444;49.166;7.312;2023-03-19T11:09:27;13.60;98.40
2873;DHT22;1444;49.166;7.312;2023-03-19T11:11:58;13.50;98.50
2873;DHT22;1444;49.166;7.312;2023-03-19T11:14:34;13.60;98.60
2873;DHT22;1444;49.166;7.312;2023-03-19T11:17:04;13.60;98.70
2873;DHT22;1444;49.166;7.312;2023-03-19T11:19:38;13.60;98.50
2873;DHT22;1444;49.166;7.312;2023-03-19T11:22:15;13.50;98.50
2873;DHT22;1444;49.166;7.312;2023-03-19T11:24:49;13.50;98.60
2873;DHT22;1444;49.166;7.312;2023-03-19T11:27:17;13.40;98.60
2873;DHT22;1444;49.166;7.312;2023-03-19T11:29:44;13.50;99.20
2873;DHT22;1444;49.166;7.312;2023-03-19T11:32:32;13.50;99.30
2873;DHT22;1444;49.166;7.312;2023-03-19T11:35:03;13.50;99.10
2873;DHT22;1444;49.166;7.312;2023-03-19T11:37:42;13.50;99.20
2873;DHT22;1444;49.166;7.312;2023-03-19T11:40:20;13.50;99.40
2873;DHT22;1444;49.166;7.312;2023-03-19T11:43:05;13.50;99.20
2873;DHT22;1444;49.166;7.312;2023-03-19T11:48:28;13.60;99.70
2873;DHT22;1444;49.166;7.312;2023-03-19T11:51:02;13.90;99.70
2873;DHT22;1444;49.166;7.312;2023-03-19T11:53:35;13.90;99.10
2873;DHT22;1444;49.166;7.312;2023-03-19T11:56:09;14.00;99.90
2873;DHT22;1444;49.166;7.312;2023-03-19T12:02:04;14.20;99.90
2873;DHT22;1444;49.166;7.312;2023-03-19T12:04:59;14.30;99.80
2873;DHT22;1444;49.166;7.312;2023-03-19T12:10:11;14.50;99.10
2873;DHT22;1444;49.166;7.312;2023-03-19T12:12:46;14.50;98.60
2873;DHT22;1444;49.166;7.312;2023-03-19T12:15:22;14.40;99.50
2873;DHT22;1444;49.166;7.312;2023-03-19T12:17:57;14.30;99.00
2873;DHT22;1444;49.166;7.312;2023-03-19T12:20:35;14.10;99.00
2873;DHT22;1444;49.166;7.312;2023-03-19T12:23:12;14.00;98.80
2873;DHT22;1444;49.166;7.312;2023-03-19T12:25:54;14.20;99.10
2873;DHT22;1444;49.166;7.312;2023-03-19T12:28:30;14.30;99.00
2873;DHT22;1444;49.166;7.312;2023-03-19T12:34:15;14.30;98.00
2873;DHT22;1444;49.166;7.312;2023-03-19T12:36:49;14.20;98.20
2873;DHT22;1444;49.166;7.312;2023-03-19T12:39:23;14.30;98.30
2873;DHT22;1444;49.166;7.312;2023-03-19T12:41:51;14.40;98.90
2873;DHT22;1444;49.166;7.312;2023-03-19T12:44:24;14.50;98.70
2873;DHT22;1444;49.166;7.312;2023-03-19T12:46:57;14.40;98.90
2873;DHT22;1444;49.166;7.312;2023-03-19T12:49:28;14.30;98.80
2873;DHT22;1444;49.166;7.312;2023-03-19T12:51:59;14.30;98.70
2873;DHT22;1444;49.166;7.312;2023-03-19T12:54:34;14.40;98.90
2873;DHT22;1444;49.166;7.312;2023-03-19T12:57:05;14.50;98.90
2873;DHT22;1444;49.166;7.312;2023-03-19T12:59:36;14.50;98.30
2873;DHT22;1444;49.166;7.312;2023-03-19T13:02:11;14.40;97.80
2873;DHT22;1444;49.166;7.312;2023-03-19T13:04:47;14.50;97.40
2873;DHT22;1444;49.166;7.312;2023-03-19T13:07:18;14.60;97.70
2873;DHT22;1444;49.166;7.312;2023-03-19T13:09:51;14.70;97.60
2873;DHT22;1444;49.166;7.312;2023-03-19T13:12:20;15.10;99.40
2873;DHT22;1444;49.166;7.312;2023-03-19T13:14:54;15.50;97.40
2873;DHT22;1444;49.166;7.312;2023-03-19T13:17:26;15.60;96.70
2873;DHT22;1444;49.166;7.312;2023-03-19T13:19:53;15.30;96.60
2873;DHT22;1444;49.166;7.312;2023-03-19T13:22:23;15.40;97.10
2873;DHT22;1444;49.166;7.312;2023-03-19T13:24:53;15.20;96.40
2873;DHT22;1444;49.166;7.312;2023-03-19T13:27:21;15.20;97.80
2873;DHT22;1444;49.166;7.312;2023-03-19T13:30:00;15.20;97.00
2873;DHT22;1444;49.166;7.312;2023-03-19T13:32:34;15.10;97.90
2873;DHT22;1444;49.166;7.312;2023-03-19T13:35:26;15.10;97.00
2873;DHT22;1444;49.166;7.312;2023-03-19T13:37:57;15.00;97.00
2873;DHT22;1444;49.166;7.312;2023-03-19T13:40:44;14.90;97.40
2873;DHT22;1444;49.166;7.312;2023-03-19T13:43:39;14.60;97.60
2873;DHT22;1444;49.166;7.312;2023-03-19T13:46:29;14.60;97.70
2873;DHT22;1444;49.166;7.312;2023-03-19T13:49:07;14.60;97.60
2873;DHT22;1444;49.166;7.312;2023-03-19T13:51:34;14.60;98.40
2873;DHT22;1444;49.166;7.312;2023-03-19T13:54:05;14.40;97.70
2873;DHT22;1444;49.166;7.312;2023-03-19T13:56:54;14.40;98.10
2873;DHT22;1444;49.166;7.312;2023-03-19T13:59:24;14.40;98.60
2873;DHT22;1444;49.166;7.312;2023-03-19T14:01:52;14.40;98.00
2873;DHT22;1444;49.166;7.312;2023-03-19T14:04:22;14.50;98.20
2873;DHT22;1444;49.166;7.312;2023-03-19T14:06:52;14.50;98.30
2873;DHT22;1444;49.166;7.312;2023-03-19T14:09:33;15.00;98.60
2873;DHT22;1444;49.166;7.312;2023-03-19T14:12:21;14.20;98.30
2873;DHT22;1444;49.166;7.312;2023-03-19T14:14:50;14.30;99.00
2873;DHT22;1444;49.166;7.312;2023-03-19T14:17:20;14.40;99.10
2873;DHT22;1444;49.166;7.312;2023-03-19T14:19:48;14.20;98.30
2873;DHT22;1444;49.166;7.312;2023-03-19T14:22:20;14.10;98.50
2873;DHT22;1444;49.166;7.312;2023-03-19T14:25:02;14.20;98.70
2873;DHT22;1444;49.166;7.312;2023-03-19T14:27:31;14.10;98.90
2873;DHT22;1444;49.166;7.312;2023-03-19T14:30:00;14.10;99.70
2873;DHT22;1444;49.166;7.312;2023-03-19T14:32:33;14.10;99.00
2873;DHT22;1444;49.166;7.312;2023-03-19T14:35:03;14.20;99.00
2873;DHT22;1444;49.166;7.312;2023-03-19T14:37:40;14.20;99.40
2873;DHT22;1444;49.166;7.312;2023-03-19T14:40:10;14.20;98.60
2873;DHT22;1444;49.166;7.312;2023-03-19T14:42:51;14.20;98.70
2873;DHT22;1444;49.166;7.312;2023-03-19T14:45:38;14.00;97.20
2873;DHT22;1444;49.166;7.312;2023-03-19T14:48:19;14.00;96.30
2873;DHT22;1444;49.166;7.312;2023-03-19T14:51:10;14.00;96.80
2873;DHT22;1444;49.166;7.312;2023-03-19T14:53:40;13.90;96.80
2873;DHT22;1444;49.166;7.312;2023-03-19T14:56:13;13.90;97.10
2873;DHT22;1444;49.166;7.312;2023-03-19T14:58:49;13.90;97.30
2873;DHT22;1444;49.166;7.312;2023-03-19T15:01:16;14.00;97.30
2873;DHT22;1444;49.166;7.312;2023-03-19T15:03:44;14.10;98.00
2873;DHT22;1444;49.166;7.312;2023-03-19T15:06:12;14.00;97.50
2873;DHT22;1444;49.166;7.312;2023-03-19T15:08:40;14.10;97.50
2873;DHT22;1444;49.166;7.312;2023-03-19T15:11:23;14.20;97.90
2873;DHT22;1444;49.166;7.312;2023-03-19T15:14:09;14.50;97.90
2873;DHT22;1444;49.166;7.312;2023-03-19T15:16:45;14.70;97.90
2873;DHT22;1444;49.166;7.312;2023-03-19T15:19:16;14.90;97.00
2873;DHT22;1444;49.166;7.312;2023-03-19T15:24:15;15.20;97.30
2873;DHT22;1444;49.166;7.312;2023-03-19T15:26:43;15.20;96.20
2873;DHT22;1444;49.166;7.312;2023-03-19T15:29:11;15.40;97.30
2873;DHT22;1444;49.166;7.312;2023-03-19T15:31:42;15.40;97.10
2873;DHT22;1444;49.166;7.312;2023-03-19T15:34:23;15.50;95.60
2873;DHT22;1444;49.166;7.312;2023-03-19T15:36:52;15.40;96.60
2873;DHT22;1444;49.166;7.312;2023-03-19T15:41:50;15.50;94.90
2873;DHT22;1444;49.166;7.312;2023-03-19T15:44:23;15.50;95.30
2873;DHT22;1444;49.166;7.312;2023-03-19T15:46:52;15.60;95.30
2873;DHT22;1444;49.166;7.312;2023-03-19T15:49:23;15.80;95.10
2873;DHT22;1444;49.166;7.312;2023-03-19T15:51:56;15.80;94.30
2873;DHT22;1444;49.166;7.312;2023-03-19T15:54:24;15.90;94.30
2873;DHT22;1444;49.166;7.312;2023-03-19T15:56:51;15.70;94.20
2873;DHT22;1444;49.166;7.312;2023-03-19T15:59:22;15.60;94.10
2873;DHT22;1444;49.166;7.312;2023-03-19T16:01:56;15.50;94.50
2873;DHT22;1444;49.166;7.312;2023-03-19T16:04:24;15.60;94.90
2873;DHT22;1444;49.166;7.312;2023-03-19T16:09:24;14.90;94.60
2873;DHT22;1444;49.166;7.312;2023-03-19T16:11:52;15.30;95.00
2873;DHT22;1444;49.166;7.312;2023-03-19T16:14:25;15.10;95.20
2873;DHT22;1444;49.166;7.312;2023-03-19T16:16:58;15.00;95.20
2873;DHT22;1444;49.166;7.312;2023-03-19T16:19:30;15.00;95.50
2873;DHT22;1444;49.166;7.312;2023-03-19T16:21:58;14.90;95.50
2873;DHT22;1444;49.166;7.312;2023-03-19T16:24:27;14.90;95.60
2873;DHT22;1444;49.166;7.312;2023-03-19T16:26:57;14.90;95.10
2873;DHT22;1444;49.166;7.312;2023-03-19T16:29:27;14.80;94.80
2873;DHT22;1444;49.166;7.312;2023-03-19T16:31:58;14.70;94.80
2873;DHT22;1444;49.166;7.312;2023-03-19T16:34:33;14.70;94.60
2873;DHT22;1444;49.166;7.312;2023-03-19T16:37:00;14.60;94.50
2873;DHT22;1444;49.166;7.312;2023-03-19T16:39:33;14.60;94.70
2873;DHT22;1444;49.166;7.312;2023-03-19T16:42:28;14.50;94.70
2873;DHT22;1444;49.166;7.312;2023-03-19T16:44:56;14.40;94.80
2873;DHT22;1444;49.166;7.312;2023-03-19T16:47:23;14.30;95.60